createdAt,value
2022-11-03T00:00:14.681Z,101277.50
2022-11-03T00:02:48.505Z,101268.31
2022-11-03T00:05:39.494Z,101270.69
2022-11-03T00:08:14.693Z,101258.38
2022-11-03T00:10:48.198Z,101253.88
2022-11-03T00:13:22.080Z,101247.66
2022-11-03T00:15:55.722Z,101245.63
2022-11-03T00:18:29.632Z,101247.44
2022-11-03T00:21:05.211Z,101251.47
2022-11-03T00:23:42.063Z,101253.16
2022-11-03T00:26:17.549Z,101250.41
2022-11-03T00:28:53.191Z,101250.28
2022-11-03T00:31:28.887Z,101243.19
2022-11-03T00:34:03.815Z,101241.63
2022-11-03T00:36:39.423Z,101240.72
2022-11-03T00:39:14.481Z,101232.03
2022-11-03T00:41:48.097Z,101237.22
2022-11-03T00:44:22.067Z,101229.44
2022-11-03T00:46:55.711Z,101231.25
2022-11-03T00:49:29.581Z,101229.69
2022-11-03T00:52:03.163Z,101229.44
2022-11-03T00:54:38.290Z,101233.59
2022-11-03T00:57:11.840Z,101232.69
2022-11-03T00:59:45.567Z,101221.44
2022-11-03T01:02:19.152Z,101225.03
2022-11-03T01:05:06.920Z,101209.38
2022-11-03T01:07:40.376Z,101217.28
2022-11-03T01:10:15.594Z,101203.28
2022-11-03T01:12:49.240Z,101213.00
2022-11-03T01:15:23.068Z,101204.31
2022-11-03T01:17:58.001Z,101201.59
2022-11-03T01:20:31.756Z,101206.13
2022-11-03T01:23:05.613Z,101200.41
2022-11-03T01:25:40.895Z,101200.41
2022-11-03T01:28:14.346Z,101190.28
2022-11-03T01:30:48.133Z,101195.59
2022-11-03T01:33:21.679Z,101197.41
2022-11-03T01:35:55.427Z,101199.56
2022-11-03T01:38:32.301Z,101199.66
2022-11-03T01:41:09.592Z,101187.84
2022-11-03T01:43:43.631Z,101177.47
2022-11-03T01:46:24.462Z,101172.41
2022-11-03T01:49:07.500Z,101165.41
2022-11-03T01:51:43.887Z,101163.94
2022-11-03T01:54:22.594Z,101153.59
2022-11-03T01:56:58.426Z,101152.81
2022-11-03T01:59:32.219Z,101145.97
2022-11-03T02:02:06.438Z,101142.47
2022-11-03T02:04:40.737Z,101135.59
2022-11-03T02:07:20.324Z,101139.31
2022-11-03T02:09:53.961Z,101130.63
2022-11-03T02:12:29.423Z,101129.06
2022-11-03T02:15:07.001Z,101124.78
2022-11-03T02:17:42.762Z,101119.81
2022-11-03T02:20:18.729Z,101129.84
2022-11-03T02:23:14.319Z,101122.06
2022-11-03T02:25:51.047Z,101127.25
2022-11-03T02:28:27.449Z,101130.06
2022-11-03T02:31:10.857Z,101129.16
2022-11-03T02:33:50.771Z,101124.00
2022-11-03T02:36:30.308Z,101118.00
2022-11-03T02:39:08.222Z,101121.66
2022-11-03T02:41:44.490Z,101113.31
2022-11-03T02:44:20.853Z,101097.19
2022-11-03T02:46:59.254Z,101098.88
2022-11-03T02:49:33.165Z,101101.25
2022-11-03T02:52:08.120Z,101094.25
2022-11-03T02:54:45.434Z,101089.84
2022-11-03T02:57:25.480Z,101103.63
2022-11-03T03:00:03.454Z,101095.72
2022-11-03T03:02:45.095Z,101085.19
2022-11-03T03:05:22.809Z,101082.75
2022-11-03T03:08:02.530Z,101078.22
2022-11-03T03:10:40.293Z,101068.75
2022-11-03T03:13:18.821Z,101072.38
2022-11-03T03:16:05.925Z,101067.84
2022-11-03T03:18:49.167Z,101058.25
2022-11-03T03:21:26.414Z,101053.97
2022-11-03T03:24:04.064Z,101048.78
2022-11-03T03:26:43.538Z,101040.00
2022-11-03T03:29:21.864Z,101040.66
2022-11-03T03:31:59.884Z,101043.03
2022-11-03T03:34:36.634Z,101040.34
2022-11-03T03:37:12.795Z,101041.13
2022-11-03T03:39:51.630Z,101035.59
2022-11-03T03:42:26.748Z,101044.16
2022-11-03T03:45:02.249Z,101051.03
2022-11-03T03:47:37.131Z,101045.75
2022-11-03T03:50:10.898Z,101039.41
2022-11-03T03:52:44.926Z,101036.69
2022-11-03T03:58:01.501Z,101028.50
2022-11-03T04:00:39.984Z,101026.69
2022-11-03T04:03:17.596Z,101026.91
2022-11-03T04:05:51.208Z,101021.97
2022-11-03T04:08:24.919Z,101017.66
2022-11-03T04:11:15.707Z,101016.88
2022-11-03T04:14:18.535Z,101022.06
2022-11-03T04:17:10.637Z,101018.25
2022-11-03T04:20:01.996Z,101013.97
2022-11-03T04:22:35.650Z,101005.81
2022-11-03T04:25:10.122Z,101006.84
2022-11-03T04:27:44.489Z,101007.88
2022-11-03T04:30:20.371Z,101003.59
2022-11-03T04:32:55.866Z,101005.59
2022-11-03T04:35:29.888Z,101009.44
2022-11-03T04:38:19.576Z,101015.19
2022-11-03T04:40:55.571Z,101015.09
2022-11-03T04:43:34.975Z,101006.97
2022-11-03T04:46:11.563Z,101005.28
2022-11-03T04:48:47.628Z,100999.53
2022-11-03T04:51:25.488Z,101004.16
2022-11-03T04:54:02.654Z,101005.38
2022-11-03T04:56:36.639Z,100998.50
2022-11-03T04:59:13.505Z,101000.06
2022-11-03T05:01:47.562Z,101000.28
2022-11-03T05:04:22.692Z,101001.31
2022-11-03T05:06:56.482Z,100998.72
2022-11-03T05:09:32.642Z,100984.84
2022-11-03T05:12:09.620Z,100995.91
2022-11-03T05:14:43.354Z,100989.94
2022-11-03T05:17:24.773Z,100992.19
2022-11-03T05:20:02.512Z,100981.69
2022-11-03T05:22:38.403Z,100985.09
2022-11-03T05:25:35.186Z,100981.16
2022-11-03T05:28:22.009Z,100977.66
2022-11-03T05:30:56.332Z,100967.19
2022-11-03T05:33:33.100Z,100969.50
2022-11-03T05:36:15.404Z,100962.31
2022-11-03T05:38:50.167Z,100964.09
2022-11-03T05:41:26.122Z,100953.84
2022-11-03T05:44:03.411Z,100957.81
2022-11-03T05:46:37.061Z,100951.50
2022-11-03T05:49:11.785Z,100952.41
2022-11-03T05:51:47.135Z,100949.69
2022-11-03T05:54:23.624Z,100951.38
2022-11-03T05:56:58.091Z,100944.97
2022-11-03T05:59:31.835Z,100946.28
2022-11-03T06:02:29.576Z,100949.56
2022-11-03T06:05:04.459Z,100941.69
2022-11-03T06:07:39.641Z,100938.28
2022-11-03T06:10:25.191Z,100941.69
2022-11-03T06:13:03.554Z,100936.16
2022-11-03T06:15:38.643Z,100935.16
2022-11-03T06:18:17.093Z,100933.22
2022-11-03T06:20:53.745Z,100929.97
2022-11-03T06:23:28.918Z,100928.94
2022-11-03T06:26:04.286Z,100933.47
2022-11-03T06:28:40.306Z,100929.97
2022-11-03T06:31:23.366Z,100921.50
2022-11-03T06:33:59.038Z,100918.81
2022-11-03T06:36:37.856Z,100927.59
2022-11-03T06:39:22.353Z,100922.63
2022-11-03T06:41:56.246Z,100913.50
2022-11-03T06:44:30.322Z,100907.78
2022-11-03T06:47:16.281Z,100902.50
2022-11-03T06:49:50.378Z,100906.31
2022-11-03T06:52:27.522Z,100903.25
2022-11-03T06:55:22.524Z,100897.19
2022-11-03T06:58:00.082Z,100899.09
2022-11-03T07:00:36.215Z,100898.50
2022-11-03T07:03:19.272Z,100894.88
2022-11-03T07:05:57.555Z,100896.13
2022-11-03T07:08:36.746Z,100895.56
2022-11-03T07:11:16.036Z,100890.59
2022-11-03T07:13:52.934Z,100891.69
2022-11-03T07:16:30.774Z,100901.28
2022-11-03T07:19:06.452Z,100895.06
2022-11-03T07:21:45.114Z,100895.19
2022-11-03T07:24:22.059Z,100893.13
2022-11-03T07:27:03.494Z,100888.16
2022-11-03T07:29:37.217Z,100886.88
2022-11-03T07:32:16.650Z,100886.22
2022-11-03T07:34:53.501Z,100880.34
2022-11-03T07:37:27.392Z,100883.47
2022-11-03T07:40:01.441Z,100875.69
2022-11-03T07:42:36.410Z,100870.69
2022-11-03T07:45:34.344Z,100871.59
2022-11-03T07:48:29.742Z,100876.44
2022-11-03T07:51:16.388Z,100879.53
2022-11-03T07:53:52.090Z,100876.47
2022-11-03T07:56:28.606Z,100873.28
2022-11-03T07:59:14.908Z,100863.00
2022-11-03T08:01:50.567Z,100858.94
2022-11-03T08:04:26.633Z,100849.66
2022-11-03T08:07:00.719Z,100864.63
2022-11-03T08:09:34.260Z,100855.63
2022-11-03T08:12:08.504Z,100847.47
2022-11-03T08:14:43.444Z,100845.47
2022-11-03T08:17:17.298Z,100833.88
2022-11-03T08:19:50.903Z,100830.81
2022-11-03T08:22:26.150Z,100826.38
2022-11-03T08:24:59.718Z,100826.00
2022-11-03T08:27:33.526Z,100827.56
2022-11-03T08:30:10.019Z,100835.75
2022-11-03T08:32:43.917Z,100825.59
2022-11-03T08:35:17.570Z,100825.34
2022-11-03T08:37:51.311Z,100822.50
2022-11-03T08:40:24.993Z,100814.41
2022-11-03T08:42:58.785Z,100814.06
2022-11-03T08:45:33.608Z,100804.47
2022-11-03T08:48:08.129Z,100802.22
2022-11-03T08:50:41.796Z,100802.94
2022-11-03T08:53:15.609Z,100800.97
2022-11-03T08:55:49.143Z,100800.84
2022-11-03T08:58:23.310Z,100810.00
2022-11-03T09:00:58.491Z,100807.88
2022-11-03T09:03:32.344Z,100806.16
2022-11-03T09:06:06.085Z,100801.84
2022-11-03T09:11:33.573Z,100794.31
2022-11-03T09:14:07.278Z,100785.88
2022-11-03T09:16:42.188Z,100783.78
2022-11-03T09:19:15.970Z,100786.84
2022-11-03T09:21:49.622Z,100772.72
2022-11-03T09:24:23.502Z,100768.56
2022-11-03T09:27:02.059Z,100770.53
2022-11-03T09:29:58.326Z,100777.56
2022-11-03T09:32:31.850Z,100772.88
2022-11-03T09:35:06.274Z,100768.31
2022-11-03T09:37:40.016Z,100756.66
2022-11-03T09:40:17.049Z,100766.44
2022-11-03T09:42:50.610Z,100757.69
2022-11-03T09:45:24.329Z,100766.50
2022-11-03T09:47:59.362Z,100761.53
2022-11-03T09:50:33.435Z,100766.00
2022-11-03T09:53:07.695Z,100750.28
2022-11-03T09:55:41.905Z,100746.44
2022-11-03T09:58:18.536Z,100740.03
2022-11-03T10:00:52.371Z,100745.28
2022-11-03T10:03:27.370Z,100739.75
2022-11-03T10:06:01.132Z,100735.50
2022-11-03T10:08:37.930Z,100734.13
2022-11-03T10:11:11.857Z,100728.31
2022-11-03T10:13:49.035Z,100728.97
2022-11-03T10:16:25.918Z,100721.94
2022-11-03T10:19:01.088Z,100716.75
2022-11-03T10:21:35.430Z,100720.78
2022-11-03T10:24:12.669Z,100709.63
2022-11-03T10:26:48.045Z,100714.13
2022-11-03T10:29:23.187Z,100707.03
2022-11-03T10:31:58.817Z,100709.94
2022-11-03T10:34:39.227Z,100706.34
2022-11-03T10:37:20.743Z,100703.44
2022-11-03T10:39:55.712Z,100701.25
2022-11-03T10:42:35.504Z,100705.84
2022-11-03T10:45:17.780Z,100699.22
2022-11-03T10:48:01.125Z,100688.47
2022-11-03T10:50:36.086Z,100685.13
2022-11-03T10:53:17.947Z,100684.91
2022-11-03T10:55:51.541Z,100691.47
2022-11-03T10:58:26.020Z,100681.09
2022-11-03T11:00:59.596Z,100670.56
2022-11-03T11:03:34.452Z,100671.09
2022-11-03T11:06:20.230Z,100668.31
2022-11-03T11:09:00.119Z,100665.97
2022-11-03T11:11:33.984Z,100668.50
2022-11-03T11:14:24.082Z,100660.66
2022-11-03T11:16:59.520Z,100650.72
2022-11-03T11:20:12.074Z,100644.03
2022-11-03T11:22:46.981Z,100634.75
2022-11-03T11:25:21.385Z,100628.97
2022-11-03T11:27:59.149Z,100640.00
2022-11-03T11:31:00.060Z,100635.16
2022-11-03T11:33:35.282Z,100624.78
2022-11-03T11:36:29.765Z,100618.50
2022-11-03T11:39:05.669Z,100605.16
2022-11-03T11:42:10.426Z,100605.63
2022-11-03T11:44:58.783Z,100599.56
2022-11-03T11:47:49.222Z,100591.78
2022-11-03T11:50:29.436Z,100592.94
2022-11-03T11:53:12.464Z,100591.25
2022-11-03T11:55:51.917Z,100576.66
2022-11-03T11:58:32.828Z,100569.31
2022-11-03T12:01:20.746Z,100565.91
2022-11-03T12:03:56.827Z,100558.81
2022-11-03T12:06:35.166Z,100555.53
2022-11-03T12:09:16.350Z,100549.63
2022-11-03T12:11:56.171Z,100548.56
2022-11-03T12:14:35.426Z,100541.25
2022-11-03T12:17:34.473Z,100538.44
2022-11-03T12:20:36.776Z,100534.94
2022-11-03T12:23:10.377Z,100528.16
2022-11-03T12:25:44.160Z,100533.31
2022-11-03T12:28:34.845Z,100522.06
2022-11-03T12:31:08.544Z,100516.13
2022-11-03T12:33:42.079Z,100514.09
2022-11-03T12:36:15.718Z,100508.38
2022-11-03T12:38:49.249Z,100499.03
2022-11-03T12:41:24.405Z,100500.03
2022-11-03T12:43:59.293Z,100484.25
2022-11-03T12:46:33.050Z,100483.13
2022-11-03T12:49:06.524Z,100479.63
2022-11-03T12:51:40.200Z,100476.25
2022-11-03T12:54:13.810Z,100467.75
2022-11-03T12:56:47.508Z,100469.53
2022-11-03T12:59:22.354Z,100466.81
2022-11-03T13:01:56.204Z,100458.88
2022-11-03T13:04:29.781Z,100455.09
2022-11-03T13:07:03.528Z,100452.50
2022-11-03T13:09:37.031Z,100444.06
2022-11-03T13:12:30.878Z,100442.34
2022-11-03T13:15:07.596Z,100434.09
2022-11-03T13:20:35.817Z,100436.59
2022-11-03T13:23:10.410Z,100423.38
2022-11-03T13:25:46.342Z,100429.16
2022-11-03T13:28:20.117Z,100420.66
2022-11-03T13:30:54.902Z,100417.31
2022-11-03T13:33:28.727Z,100419.88
2022-11-03T13:36:02.658Z,100408.00
2022-11-03T13:38:36.581Z,100407.91
2022-11-03T13:41:10.166Z,100401.19
2022-11-03T13:43:43.915Z,100396.72
2022-11-03T13:46:19.059Z,100396.34
2022-11-03T13:49:43.833Z,100394.91
2022-11-03T13:51:46.277Z,100387.84
2022-11-03T14:00:09.217Z,100364.84
2022-11-03T14:05:38.868Z,100358.28
2022-11-03T14:08:12.309Z,100370.22
2022-11-03T14:10:46.112Z,100361.22
2022-11-03T14:13:18.628Z,100367.16
2022-11-03T14:15:53.400Z,100361.28
2022-11-03T14:18:28.264Z,100359.50
2022-11-03T14:21:02.536Z,100355.00
2022-11-03T14:23:36.052Z,100360.00
2022-11-03T14:26:23.836Z,100351.25
2022-11-03T14:29:04.073Z,100347.03
2022-11-03T14:31:37.867Z,100338.66
2022-11-03T14:34:12.790Z,100347.13
2022-11-03T14:36:46.607Z,100335.78
2022-11-03T14:39:20.073Z,100338.34
2022-11-03T14:42:05.089Z,100320.91
2022-11-03T14:44:40.822Z,100326.88
2022-11-03T14:47:17.504Z,100325.03
2022-11-03T14:49:52.379Z,100311.13
2022-11-03T14:52:26.125Z,100304.84
2022-11-03T14:54:59.659Z,100302.16
2022-11-03T14:57:33.463Z,100290.88
2022-11-03T15:00:08.659Z,100283.84
2022-11-03T15:02:42.417Z,100281.88
2022-11-03T15:05:31.268Z,100275.66
2022-11-03T15:08:05.383Z,100259.41
2022-11-03T15:10:39.311Z,100256.81
2022-11-03T15:13:13.428Z,100255.78
2022-11-03T15:15:47.024Z,100243.59
2022-11-03T15:18:20.951Z,100258.22
2022-11-03T15:20:55.890Z,100261.63
2022-11-03T15:26:23.157Z,100254.06
2022-11-03T15:28:57.038Z,100245.31
2022-11-03T15:31:30.542Z,100229.50
2022-11-03T15:34:07.703Z,100211.50
2022-11-03T15:36:43.971Z,100197.38
2022-11-03T15:39:18.240Z,100198.09
2022-11-03T15:41:51.723Z,100182.06
2022-11-03T15:44:25.420Z,100174.50
2022-11-03T15:46:59.120Z,100171.81
2022-11-03T15:49:33.163Z,100166.16
2022-11-03T15:52:09.726Z,100172.97
2022-11-03T15:54:43.438Z,100160.84
2022-11-03T15:57:17.052Z,100156.41
2022-11-03T15:59:53.859Z,100166.84
2022-11-03T16:02:45.918Z,100153.91
2022-11-03T16:05:24.850Z,100149.28
2022-11-03T16:08:00.416Z,100144.00
2022-11-03T16:10:34.144Z,100150.78
2022-11-03T16:13:07.788Z,100155.06
2022-11-03T16:15:42.541Z,100140.09
2022-11-03T16:18:16.067Z,100134.16
2022-11-03T16:20:49.739Z,100123.34
2022-11-03T16:23:25.501Z,100115.38
2022-11-03T16:25:59.155Z,100110.00
2022-11-03T16:28:32.704Z,100118.84
2022-11-03T16:31:06.773Z,100115.16
2022-11-03T16:33:40.246Z,100114.69
2022-11-03T16:36:13.905Z,100110.28
2022-11-03T16:38:48.746Z,100104.13
2022-11-03T16:41:22.446Z,100095.25
2022-11-03T16:43:56.046Z,100096.94
2022-11-03T16:46:29.887Z,100088.38
2022-11-03T16:49:03.719Z,100086.94
2022-11-03T16:51:37.499Z,100085.88
2022-11-03T16:54:12.532Z,100070.22
2022-11-03T16:56:50.614Z,100076.03
2022-11-03T16:59:27.231Z,100052.47
2022-11-03T17:02:01.421Z,100055.81
2022-11-03T17:04:34.967Z,100055.50
2022-11-03T17:07:08.713Z,100061.44
2022-11-03T17:09:43.701Z,100056.09
2022-11-03T17:12:17.689Z,100051.47
2022-11-03T17:14:54.036Z,100060.09
2022-11-03T17:17:30.809Z,100063.28
2022-11-03T17:20:04.816Z,100063.22
2022-11-03T17:22:38.827Z,100060.50
2022-11-03T17:25:13.632Z,100065.78
2022-11-03T17:27:50.548Z,100068.41
2022-11-03T17:30:25.964Z,100065.13
2022-11-03T17:33:03.286Z,100065.78
2022-11-03T17:35:40.077Z,100062.88
2022-11-03T17:38:16.437Z,100048.84
2022-11-03T17:40:52.172Z,100037.66
2022-11-03T17:43:27.913Z,100025.88
2022-11-03T17:46:01.486Z,100035.47
2022-11-03T17:48:35.349Z,100029.13
2022-11-03T17:51:12.181Z,100030.84
2022-11-03T17:53:46.592Z,100015.00
2022-11-03T17:56:30.518Z,100007.28
2022-11-03T17:59:05.610Z,99996.84
2022-11-03T18:01:39.383Z,100001.06
2022-11-03T18:06:48.358Z,100006.06
2022-11-03T18:09:22.795Z,99992.06
2022-11-03T18:12:14.956Z,99985.94
2022-11-03T18:14:48.701Z,99972.66
2022-11-03T18:17:22.241Z,99966.44
2022-11-03T18:19:56.112Z,99966.44
2022-11-03T18:22:29.718Z,99969.59
2022-11-03T18:25:03.518Z,99964.19
2022-11-03T18:27:38.522Z,99954.41
2022-11-03T18:30:16.622Z,99968.13
2022-11-03T18:32:50.426Z,99954.06
2022-11-03T18:35:27.187Z,99950.84
2022-11-03T18:38:01.181Z,99948.84
2022-11-03T18:40:35.077Z,99944.47
2022-11-03T18:43:18.956Z,99932.03
2022-11-03T18:45:53.133Z,99928.53
2022-11-03T18:48:26.744Z,99913.84
2022-11-03T18:51:00.447Z,99905.13
2022-11-03T18:53:34.299Z,99905.94
2022-11-03T18:56:11.740Z,99894.31
2022-11-03T18:58:46.981Z,99892.41
2022-11-03T19:01:22.790Z,99883.00
2022-11-03T19:03:57.402Z,99889.03
2022-11-03T19:06:31.501Z,99880.34
2022-11-03T19:09:05.164Z,99881.81
2022-11-03T19:11:39.087Z,99879.94
2022-11-03T19:14:24.619Z,99874.09
2022-11-03T19:17:21.780Z,99875.31
2022-11-03T19:19:53.819Z,99877.78
2022-11-03T19:22:27.810Z,99871.44
2022-11-03T19:25:01.486Z,99871.56
2022-11-03T19:27:38.214Z,99872.38
2022-11-03T19:30:15.986Z,99859.28
2022-11-03T19:32:52.199Z,99858.25
2022-11-03T19:35:30.808Z,99858.06
2022-11-03T19:38:07.153Z,99842.88
2022-11-03T19:41:02.110Z,99849.53
2022-11-03T19:43:35.291Z,99842.69
2022-11-03T19:46:20.567Z,99838.38
2022-11-03T19:48:55.170Z,99837.59
2022-11-03T19:51:29.627Z,99837.22
2022-11-03T19:54:04.762Z,99833.22
2022-11-03T19:56:38.245Z,99833.22
2022-11-03T19:59:13.459Z,99826.97
2022-11-03T20:01:49.605Z,99825.00
2022-11-03T20:04:23.519Z,99818.84
2022-11-03T20:06:57.746Z,99816.16
2022-11-03T20:09:32.032Z,99809.31
2022-11-03T20:12:07.424Z,99814.28
2022-11-03T20:14:41.313Z,99803.00
2022-11-03T20:17:17.647Z,99796.16
2022-11-03T20:19:53.196Z,99792.88
2022-11-03T20:22:31.163Z,99798.69
2022-11-03T20:25:05.728Z,99794.56
2022-11-03T20:27:39.269Z,99780.38
2022-11-03T20:30:15.885Z,99787.25
2022-11-03T20:32:51.528Z,99789.88
2022-11-03T20:35:27.190Z,99785.59
2022-11-03T20:38:01.560Z,99787.19
2022-11-03T20:40:35.362Z,99780.22
2022-11-03T20:43:17.465Z,99788.31
2022-11-03T20:45:51.295Z,99777.06
2022-11-03T20:48:26.586Z,99778.84
2022-11-03T20:51:01.037Z,99782.88
2022-11-03T20:53:34.515Z,99776.44
2022-11-03T20:56:18.428Z,99777.31
2022-11-03T20:58:53.631Z,99770.22
2022-11-03T21:01:32.993Z,99772.00
2022-11-03T21:04:14.442Z,99770.22
2022-11-03T21:06:48.462Z,99770.94
2022-11-03T21:09:22.086Z,99762.47
2022-11-03T21:11:55.798Z,99750.06
2022-11-03T21:14:31.407Z,99753.09
2022-11-03T21:17:22.541Z,99750.78
2022-11-03T21:20:02.150Z,99737.56
2022-11-03T21:22:51.975Z,99744.50
2022-11-03T21:25:27.025Z,99739.41
2022-11-03T21:28:00.782Z,99732.47
2022-11-03T21:30:34.429Z,99730.53
2022-11-03T21:33:08.203Z,99734.13
2022-11-03T21:35:44.474Z,99717.72
2022-11-03T21:38:19.079Z,99722.72
2022-11-03T21:41:13.272Z,99719.16
2022-11-03T21:44:04.343Z,99731.47
2022-11-03T21:46:38.674Z,99736.56
2022-11-03T21:49:29.807Z,99734.06
2022-11-03T21:52:04.803Z,99726.97
2022-11-03T21:54:39.205Z,99727.69
2022-11-03T21:57:15.629Z,99723.50
2022-11-03T21:59:49.361Z,99730.53
2022-11-03T22:02:22.923Z,99732.41
2022-11-03T22:04:57.006Z,99733.84
2022-11-03T22:07:33.502Z,99731.47
2022-11-03T22:10:07.932Z,99722.59
2022-11-03T22:12:41.489Z,99731.91
2022-11-03T22:15:32.677Z,99721.06
2022-11-03T22:18:07.836Z,99711.47
2022-11-03T22:20:59.562Z,99714.81
2022-11-03T22:23:54.035Z,99710.75
2022-11-03T22:26:45.431Z,99712.66
2022-11-03T22:29:48.106Z,99711.75
2022-11-03T22:32:21.804Z,99707.63
2022-11-03T22:35:12.801Z,99702.41
2022-11-03T22:37:46.613Z,99704.13
2022-11-03T22:40:39.070Z,99711.81
2022-11-03T22:43:30.514Z,99715.31
2022-11-03T22:46:04.294Z,99713.72
2022-11-03T22:48:38.768Z,99711.75
2022-11-03T22:51:14.569Z,99719.59
2022-11-03T22:54:05.772Z,99722.19
2022-11-03T22:56:40.906Z,99721.41
2022-11-03T22:59:14.695Z,99723.72
2022-11-03T23:01:48.510Z,99720.97
2022-11-03T23:04:22.403Z,99720.00
2022-11-03T23:06:56.399Z,99717.63
2022-11-03T23:09:33.024Z,99707.16
2022-11-03T23:12:08.105Z,99708.16
2022-11-03T23:14:59.582Z,99702.16
2022-11-03T23:17:47.356Z,99702.06
2022-11-03T23:20:38.463Z,99692.56
2022-11-03T23:23:32.508Z,99691.50
2022-11-03T23:26:08.017Z,99682.81
2022-11-03T23:28:43.268Z,99675.28
2022-11-03T23:31:17.552Z,99679.97
2022-11-03T23:33:51.324Z,99674.56
2022-11-03T23:36:25.196Z,99664.56
2022-11-03T23:38:59.944Z,99656.38
2022-11-03T23:41:34.118Z,99654.47
2022-11-03T23:44:09.232Z,99654.25
2022-11-03T23:47:01.493Z,99639.50
2022-11-03T23:49:35.094Z,99635.13
2022-11-03T23:52:08.802Z,99647.09
2022-11-03T23:54:42.269Z,99636.56
2022-11-03T23:57:33.977Z,99637.28
